Time;durP1;ratioP1;P1;durP2;ratioP2;P2;SDS_P1;SDS_P2;PMS_P1;PMS_P2;Temp;Humidity;BMP_temperature;BMP_pressure;BME280_temperature;BME280_humidity;BME280_pressure;Samples;Min_cycle;Max_cycle;Signal;HPM_P1;HPM_P2
2023/10/11 00:01:20;;;;;;;16.73;3.72;;;;;;;;;;5027930;28;20515;-86
2023/10/11 00:03:54;;;;;;;14.20;3.47;;;;;;;;;;5025920;28;20242;-86
2023/10/11 00:06:20;;;;;;;11.25;3.08;;;;;;;;;;5036355;28;20044;-85
2023/10/11 00:08:45;;;;;;;13.98;3.58;;;;;;;;;;5034990;28;20041;-86
2023/10/11 00:11:18;;;;;;;14.38;3.50;;;;;;;;;;5032153;28;20080;-86
2023/10/11 00:13:46;;;;;;;18.03;3.70;;;;;;;;;;5033946;28;20040;-86
2023/10/11 00:16:14;;;;;;;14.32;3.65;;;;;;;;;;5027134;28;20308;-86
2023/10/11 00:18:41;;;;;;;13.55;3.15;;;;;;;;;;5025989;28;20033;-85
2023/10/11 00:21:16;;;;;;;14.68;3.13;;;;;;;;;;5035399;28;20053;-86
2023/10/11 00:23:44;;;;;;;9.63;3.53;;;;;;;;;;5029129;28;20552;-86
2023/10/11 00:26:10;;;;;;;12.68;3.47;;;;;;;;;;5029236;28;20048;-86
2023/10/11 00:28:38;;;;;;;14.27;3.33;;;;;;;;;;5033098;28;20030;-86
2023/10/11 00:31:11;;;;;;;16.40;3.55;;;;;;;;;;5033133;28;20041;-86
2023/10/11 00:33:37;;;;;;;17.90;3.65;;;;;;;;;;5035712;28;20030;-85
2023/10/11 00:36:04;;;;;;;11.13;2.97;;;;;;;;;;5033300;28;20041;-85
2023/10/11 00:38:31;;;;;;;17.15;3.65;;;;;;;;;;5031882;28;20518;-86
2023/10/11 00:41:12;;;;;;;9.57;2.95;;;;;;;;;;5034481;28;20061;-86
2023/10/11 00:43:41;;;;;;;15.60;3.60;;;;;;;;;;5032843;28;20041;-87
2023/10/11 00:46:09;;;;;;;13.48;3.83;;;;;;;;;;5014162;28;20034;-87
2023/10/11 00:48:51;;;;;;;14.85;3.45;;;;;;;;;;5035082;28;20124;-86
2023/10/11 00:51:19;;;;;;;12.10;2.90;;;;;;;;;;5029515;28;20066;-86
2023/10/11 00:53:45;;;;;;;18.52;4.25;;;;;;;;;;5035641;28;20079;-86
2023/10/11 00:56:10;;;;;;;16.27;3.78;;;;;;;;;;5032790;28;20033;-86
2023/10/11 00:58:38;;;;;;;17.58;3.50;;;;;;;;;;5028742;28;20454;-87
2023/10/11 01:01:04;;;;;;;14.25;3.55;;;;;;;;;;5019025;28;20037;-87
2023/10/11 01:03:34;;;;;;;15.68;3.47;;;;;;;;;;5035358;28;20037;-87
2023/10/11 01:06:00;;;;;;;15.32;3.72;;;;;;;;;;5032090;28;20511;-87
2023/10/11 01:08:28;;;;;;;12.85;4.10;;;;;;;;;;5023408;28;20463;-86
2023/10/11 01:10:53;;;;;;;11.73;3.35;;;;;;;;;;5033576;28;20131;-86
2023/10/11 01:13:19;;;;;;;13.32;3.63;;;;;;;;;;5033234;28;20064;-87
2023/10/11 01:15:44;;;;;;;23.40;3.40;;;;;;;;;;5035675;28;20049;-85
2023/10/11 01:18:12;;;;;;;15.27;3.50;;;;;;;;;;5036084;28;20520;-85
2023/10/11 01:20:40;;;;;;;14.10;3.30;;;;;;;;;;5028486;28;20026;-85
2023/10/11 01:23:06;;;;;;;11.80;3.28;;;;;;;;;;5032840;28;20039;-86
2023/10/11 01:25:33;;;;;;;14.50;3.03;;;;;;;;;;5028452;28;20089;-86
2023/10/11 01:27:59;;;;;;;13.25;3.40;;;;;;;;;;5032884;28;20466;-86
2023/10/11 01:30:27;;;;;;;12.73;3.45;;;;;;;;;;5035737;28;20116;-86
2023/10/11 01:32:55;;;;;;;12.93;3.42;;;;;;;;;;5032980;28;20124;-88
2023/10/11 01:35:20;;;;;;;14.45;3.20;;;;;;;;;;5032483;28;20438;-85
2023/10/11 01:37:48;;;;;;;13.73;3.42;;;;;;;;;;5034863;28;20063;-85
2023/10/11 01:40:20;;;;;;;11.32;3.03;;;;;;;;;;5031810;28;20097;-85
2023/10/11 01:42:55;;;;;;;12.68;3.50;;;;;;;;;;5034670;28;20802;-87
2023/10/11 01:45:23;;;;;;;15.40;3.70;;;;;;;;;;5033846;28;20044;-85
2023/10/11 01:47:56;;;;;;;15.90;3.53;;;;;;;;;;5031847;28;20029;-86
2023/10/11 01:50:22;;;;;;;18.48;4.22;;;;;;;;;;5042518;28;20111;-85
2023/10/11 01:52:48;;;;;;;14.40;3.70;;;;;;;;;;5033069;28;20029;-86
2023/10/11 01:55:14;;;;;;;13.80;4.07;;;;;;;;;;5033673;28;20403;-86
2023/10/11 01:57:50;;;;;;;14.48;4.10;;;;;;;;;;5033554;28;20049;-87
2023/10/11 02:00:29;;;;;;;14.40;3.20;;;;;;;;;;5034101;28;20036;-87
2023/10/11 02:02:55;;;;;;;12.75;3.40;;;;;;;;;;5031520;28;20515;-86
2023/10/11 02:05:25;;;;;;;18.42;3.83;;;;;;;;;;5033741;28;20045;-83
2023/10/11 02:07:51;;;;;;;18.88;3.85;;;;;;;;;;5031841;28;20410;-86
2023/10/11 02:10:26;;;;;;;15.90;3.60;;;;;;;;;;5014006;28;20492;-86
2023/10/11 02:12:55;;;;;;;12.18;3.72;;;;;;;;;;5031885;28;20442;-86
2023/10/11 02:15:21;;;;;;;15.50;3.40;;;;;;;;;;5033475;28;20550;-86
2023/10/11 02:17:51;;;;;;;14.40;3.80;;;;;;;;;;5033482;28;20505;-86
2023/10/11 02:20:20;;;;;;;13.55;3.97;;;;;;;;;;5029834;28;20094;-86
2023/10/11 02:22:55;;;;;;;12.23;3.92;;;;;;;;;;5026441;28;20034;-87
2023/10/11 02:25:24;;;;;;;14.65;3.80;;;;;;;;;;5033696;28;20053;-87
2023/10/11 02:27:54;;;;;;;17.35;3.78;;;;;;;;;;5032429;28;20089;-86
2023/10/11 02:30:24;;;;;;;13.68;3.35;;;;;;;;;;5030243;28;20522;-86
2023/10/11 02:33:04;;;;;;;14.73;3.88;;;;;;;;;;5033439;28;20041;-86
2023/10/11 02:35:31;;;;;;;14.77;3.60;;;;;;;;;;5033510;28;20579;-86
2023/10/11 02:37:59;;;;;;;14.50;3.42;;;;;;;;;;5034392;28;20075;-87
2023/10/11 02:40:24;;;;;;;19.30;4.15;;;;;;;;;;5033434;28;20407;-87
2023/10/11 02:42:55;;;;;;;13.75;3.60;;;;;;;;;;5032871;28;20037;-84
2023/10/11 02:45:22;;;;;;;19.05;4.47;;;;;;;;;;5032953;28;20065;-87
2023/10/11 02:47:49;;;;;;;16.38;3.55;;;;;;;;;;5034942;28;20034;-85
2023/10/11 02:50:15;;;;;;;14.80;3.53;;;;;;;;;;5037480;28;20034;-85
2023/10/11 02:52:42;;;;;;;17.45;3.63;;;;;;;;;;5038273;28;20022;-85
2023/10/11 02:57:45;;;;;;;21.73;3.72;;;;;;;;;;5034097;28;20515;-85
2023/10/11 03:00:21;;;;;;;13.75;2.90;;;;;;;;;;5023427;28;20025;-87
2023/10/11 03:02:54;;;;;;;14.82;3.83;;;;;;;;;;5034075;28;20386;-86
2023/10/11 03:05:26;;;;;;;14.05;3.15;;;;;;;;;;5060022;23;21032;-83
2023/10/11 03:10:44;;;;;;;12.10;3.58;;;;;;;;;;5038680;28;20030;-83
2023/10/11 03:13:23;;;;;;;10.88;3.17;;;;;;;;;;5039840;28;20022;-82
2023/10/11 03:15:55;;;;;;;16.63;3.55;;;;;;;;;;5036340;28;20038;-83
2023/10/11 03:18:22;;;;;;;13.20;3.70;;;;;;;;;;5028527;28;20030;-83
2023/10/11 03:20:50;;;;;;;16.20;3.08;;;;;;;;;;5044837;28;20550;-83
2023/10/11 03:23:20;;;;;;;15.15;3.50;;;;;;;;;;5033073;28;20037;-83
2023/10/11 03:25:49;;;;;;;17.40;3.85;;;;;;;;;;5032320;28;20038;-83
2023/10/11 03:28:21;;;;;;;15.45;3.50;;;;;;;;;;5023634;28;20048;-83
2023/10/11 03:30:46;;;;;;;12.10;3.50;;;;;;;;;;5030314;28;20045;-83
2023/10/11 03:33:12;;;;;;;17.02;3.72;;;;;;;;;;5032457;28;20030;-83
2023/10/11 03:35:38;;;;;;;18.75;3.90;;;;;;;;;;5032139;28;20399;-82
2023/10/11 03:38:16;;;;;;;14.07;3.25;;;;;;;;;;5025176;28;20044;-83
2023/10/11 03:41:14;;;;;;;17.77;3.80;;;;;;;;;;5021125;28;20038;-81
2023/10/11 03:43:40;;;;;;;18.00;3.83;;;;;;;;;;5025852;28;20062;-82
2023/10/11 03:46:10;;;;;;;17.92;3.63;;;;;;;;;;5033924;28;20033;-83
2023/10/11 03:48:44;;;;;;;14.65;3.38;;;;;;;;;;5020061;28;20045;-83
2023/10/11 03:51:12;;;;;;;17.05;3.78;;;;;;;;;;5021413;28;20065;-83
2023/10/11 03:53:40;;;;;;;14.55;3.80;;;;;;;;;;5023144;28;20073;-83
2023/10/11 03:56:07;;;;;;;13.38;3.25;;;;;;;;;;5042888;28;20040;-82
2023/10/11 03:58:33;;;;;;;13.57;3.20;;;;;;;;;;5030040;28;20060;-84
2023/10/11 04:01:43;;;;;;;15.35;3.30;;;;;;;;;;5023605;28;20050;-84
2023/10/11 04:03:49;;;;;;;16.48;3.40;;;;;;;;;;5019279;28;20124;-83
2023/10/11 04:06:15;;;;;;;17.45;3.65;;;;;;;;;;5048827;28;20451;-84
2023/10/11 04:08:42;;;;;;;13.00;3.05;;;;;;;;;;5028587;28;20048;-84
2023/10/11 04:11:16;;;;;;;20.73;3.50;;;;;;;;;;5039637;28;20073;-83
2023/10/11 04:13:45;;;;;;;15.15;3.47;;;;;;;;;;5034854;28;20400;-83
2023/10/11 04:16:16;;;;;;;14.82;3.47;;;;;;;;;;5030758;28;20025;-83
2023/10/11 04:18:43;;;;;;;15.40;3.78;;;;;;;;;;5030270;28;20065;-83
2023/10/11 04:21:16;;;;;;;15.85;3.55;;;;;;;;;;5037487;28;20049;-84
2023/10/11 04:23:45;;;;;;;13.60;3.47;;;;;;;;;;5045362;28;20495;-83
2023/10/11 04:28:57;;;;;;;13.25;3.42;;;;;;;;;;5029263;28;20674;-83
2023/10/11 04:31:36;;;;;;;15.27;4.13;;;;;;;;;;5022325;28;20038;-81
2023/10/11 04:34:11;;;;;;;17.25;3.30;;;;;;;;;;5025949;28;20029;-83
2023/10/11 04:36:43;;;;;;;14.98;3.88;;;;;;;;;;5035548;28;20033;-82
2023/10/11 04:39:18;;;;;;;14.05;3.17;;;;;;;;;;5032552;28;20025;-82
2023/10/11 04:41:51;;;;;;;11.98;3.30;;;;;;;;;;5019428;28;20034;-82
2023/10/11 04:44:17;;;;;;;16.63;3.75;;;;;;;;;;5028054;28;20037;-83
2023/10/11 04:46:57;;;;;;;12.95;3.58;;;;;;;;;;5031074;28;20034;-83
2023/10/11 04:49:24;;;;;;;13.75;3.67;;;;;;;;;;5027667;28;20438;-83
2023/10/11 04:51:51;;;;;;;12.93;4.00;;;;;;;;;;5038089;28;20037;-83
2023/10/11 04:54:18;;;;;;;13.90;3.55;;;;;;;;;;5039230;28;20123;-81
2023/10/11 04:59:46;;;;;;;15.30;3.70;;;;;;;;;;5052225;28;20132;-82
2023/10/11 05:02:22;;;;;;;13.55;3.63;;;;;;;;;;5020576;28;20049;-82
2023/10/11 05:04:51;;;;;;;10.85;3.25;;;;;;;;;;5023606;28;20026;-84
2023/10/11 05:07:19;;;;;;;16.80;4.13;;;;;;;;;;5027781;28;20052;-83
2023/10/11 05:09:56;;;;;;;17.73;4.07;;;;;;;;;;5029022;28;20084;-82
2023/10/11 05:12:22;;;;;;;16.63;3.38;;;;;;;;;;5027828;28;20038;-83
2023/10/11 05:32:48;;;;;;;18.42;3.40;;;;;;;;;;5019721;28;20030;-82
2023/10/11 05:51:26;;;;;;;15.25;3.47;;;;;;;;;;5032025;28;20045;-83
2023/10/11 05:53:56;;;;;;;15.43;3.78;;;;;;;;;;5021849;28;20132;-83
2023/10/11 05:56:21;;;;;;;13.93;3.60;;;;;;;;;;5036490;28;20030;-82
2023/10/11 05:58:49;;;;;;;13.88;3.35;;;;;;;;;;5026425;28;20041;-82
2023/10/11 06:01:23;;;;;;;13.20;3.50;;;;;;;;;;5025405;28;20091;-83
2023/10/11 06:03:55;;;;;;;9.50;3.38;;;;;;;;;;5017858;28;20037;-82
2023/10/11 06:06:26;;;;;;;13.82;3.58;;;;;;;;;;5016025;28;20041;-82
2023/10/11 06:08:52;;;;;;;14.57;3.10;;;;;;;;;;5019198;28;20041;-80
2023/10/11 06:11:19;;;;;;;16.80;3.97;;;;;;;;;;5025746;28;20021;-81
2023/10/11 06:13:48;;;;;;;15.55;3.63;;;;;;;;;;5007808;28;20046;-82
2023/10/11 06:16:14;;;;;;;13.98;4.03;;;;;;;;;;5015554;28;20037;-81
2023/10/11 06:18:42;;;;;;;14.02;3.53;;;;;;;;;;5020243;28;20029;-82
2023/10/11 06:21:30;;;;;;;26.50;4.30;;;;;;;;;;5022733;28;20640;-81
2023/10/11 06:24:05;;;;;;;15.73;3.40;;;;;;;;;;5025115;28;20037;-81
2023/10/11 06:29:03;;;;;;;17.73;3.17;;;;;;;;;;5050727;28;20124;-81
2023/10/11 06:31:43;;;;;;;13.27;3.70;;;;;;;;;;5024797;28;20034;-82
2023/10/11 06:34:15;;;;;;;14.85;3.65;;;;;;;;;;5029925;28;20041;-80
2023/10/11 06:36:48;;;;;;;13.40;3.40;;;;;;;;;;5030547;28;20042;-81
2023/10/11 06:42:06;;;;;;;15.98;3.45;;;;;;;;;;4992594;28;20801;-83
2023/10/11 06:44:34;;;;;;;12.68;3.15;;;;;;;;;;5030124;28;20041;-81
2023/10/11 06:47:03;;;;;;;17.40;3.20;;;;;;;;;;5014485;28;20084;-83
2023/10/11 06:49:40;;;;;;;11.60;3.22;;;;;;;;;;5020631;28;20034;-81
2023/10/11 06:52:11;;;;;;;11.07;3.28;;;;;;;;;;5030449;28;20045;-80
2023/10/11 06:54:45;;;;;;;18.50;3.30;;;;;;;;;;5029468;28;20095;-81
2023/10/11 06:57:16;;;;;;;15.75;3.97;;;;;;;;;;5023457;28;20034;-81
2023/10/11 06:59:42;;;;;;;13.10;2.90;;;;;;;;;;5021439;28;20040;-81
2023/10/11 07:02:17;;;;;;;12.52;3.28;;;;;;;;;;5029264;28;20606;-80
2023/10/11 07:04:50;;;;;;;11.43;3.15;;;;;;;;;;5036261;28;20037;-81
2023/10/11 07:07:19;;;;;;;16.17;3.30;;;;;;;;;;5028008;28;20542;-79
2023/10/11 07:09:56;;;;;;;12.25;3.00;;;;;;;;;;5022110;28;20112;-80
2023/10/11 07:12:39;;;;;;;19.08;3.58;;;;;;;;;;5029660;28;20041;-81
2023/10/11 07:15:09;;;;;;;15.38;3.47;;;;;;;;;;5032675;28;20108;-81
2023/10/11 07:17:34;;;;;;;17.67;3.50;;;;;;;;;;5027094;28;20044;-81
2023/10/11 07:20:00;;;;;;;15.07;3.47;;;;;;;;;;5024052;28;20093;-79
2023/10/11 07:22:32;;;;;;;11.13;3.30;;;;;;;;;;5026629;28;20121;-80
2023/10/11 07:25:18;;;;;;;12.00;3.73;;;;;;;;;;5027924;28;20107;-81
2023/10/11 07:27:44;;;;;;;13.75;3.28;;;;;;;;;;5024937;28;20281;-81
2023/10/11 07:30:16;;;;;;;13.45;3.35;;;;;;;;;;5035193;28;20034;-80
2023/10/11 07:32:45;;;;;;;11.68;3.00;;;;;;;;;;5021020;28;20084;-80
2023/10/11 07:35:27;;;;;;;13.13;3.08;;;;;;;;;;5027162;28;20021;-81
2023/10/11 07:37:53;;;;;;;12.38;3.28;;;;;;;;;;5023797;28;20040;-81
2023/10/11 07:40:31;;;;;;;14.55;3.05;;;;;;;;;;5018608;28;20030;-81
2023/10/11 07:42:57;;;;;;;15.90;3.28;;;;;;;;;;5020972;28;20041;-82
2023/10/11 07:45:26;;;;;;;7.75;3.08;;;;;;;;;;5053346;28;20120;-80
2023/10/11 07:47:52;;;;;;;14.13;3.33;;;;;;;;;;5029873;28;20512;-80
2023/10/11 07:50:22;;;;;;;10.50;3.17;;;;;;;;;;5035326;28;20152;-79
2023/10/11 07:52:48;;;;;;;18.10;2.90;;;;;;;;;;5022397;28;20049;-80
2023/10/11 07:55:14;;;;;;;11.77;3.28;;;;;;;;;;5028762;28;20052;-80
2023/10/11 07:57:44;;;;;;;11.52;3.10;;;;;;;;;;5032750;28;20053;-79
2023/10/11 08:00:17;;;;;;;13.00;3.10;;;;;;;;;;5017592;28;20037;-80
2023/10/11 08:03:02;;;;;;;15.10;3.53;;;;;;;;;;5019442;28;20474;-80
2023/10/11 08:05:30;;;;;;;11.27;3.13;;;;;;;;;;5021530;28;20495;-79
2023/10/11 08:07:55;;;;;;;14.80;3.38;;;;;;;;;;5020762;28;20038;-82
2023/10/11 08:10:44;;;;;;;12.45;3.25;;;;;;;;;;5012824;28;20091;-80
2023/10/11 08:13:26;;;;;;;15.02;3.30;;;;;;;;;;5021557;28;20068;-79
2023/10/11 08:15:58;;;;;;;21.67;3.22;;;;;;;;;;5025410;28;20042;-82
2023/10/11 08:18:26;;;;;;;16.43;3.53;;;;;;;;;;5027927;28;20479;-81
2023/10/11 08:20:52;;;;;;;13.35;3.05;;;;;;;;;;5016545;28;20291;-80
2023/10/11 08:23:29;;;;;;;15.27;3.03;;;;;;;;;;5020489;28;20125;-80
2023/10/11 08:25:56;;;;;;;11.05;3.25;;;;;;;;;;5023768;28;20038;-79
2023/10/11 08:28:28;;;;;;;18.67;3.28;;;;;;;;;;5030093;28;20064;-81
2023/10/11 08:30:57;;;;;;;11.27;2.90;;;;;;;;;;5028314;28;20061;-81
2023/10/11 08:33:30;;;;;;;15.80;3.38;;;;;;;;;;5037381;28;20144;-82
2023/10/11 08:35:56;;;;;;;15.15;3.38;;;;;;;;;;5028279;28;20038;-84
2023/10/11 08:38:24;;;;;;;11.88;3.47;;;;;;;;;;5031768;28;20419;-81
2023/10/11 08:40:59;;;;;;;12.77;3.22;;;;;;;;;;5024064;28;20038;-83
2023/10/11 08:43:25;;;;;;;19.40;3.38;;;;;;;;;;5021044;28;20030;-81
2023/10/11 08:46:08;;;;;;;15.65;3.53;;;;;;;;;;5023160;28;20034;-81
2023/10/11 08:48:38;;;;;;;12.60;2.97;;;;;;;;;;5023009;28;20038;-82
2023/10/11 08:51:10;;;;;;;15.85;3.20;;;;;;;;;;5026044;28;20041;-82
2023/10/11 08:53:38;;;;;;;13.35;3.55;;;;;;;;;;5015093;28;20498;-83
2023/10/11 08:56:03;;;;;;;11.73;3.10;;;;;;;;;;5018701;28;20029;-81
2023/10/11 08:58:29;;;;;;;11.80;3.38;;;;;;;;;;5026711;28;20418;-82
2023/10/11 09:00:56;;;;;;;13.30;3.05;;;;;;;;;;5044815;28;20034;-84
2023/10/11 09:03:39;;;;;;;13.50;3.38;;;;;;;;;;5023982;28;20689;-83
2023/10/11 09:06:18;;;;;;;11.57;3.08;;;;;;;;;;5016325;28;20038;-83
2023/10/11 09:08:47;;;;;;;12.32;2.90;;;;;;;;;;5021294;28;20061;-84
2023/10/11 09:11:15;;;;;;;10.55;2.97;;;;;;;;;;5045355;28;20036;-83
2023/10/11 09:13:41;;;;;;;10.65;2.83;;;;;;;;;;5031192;28;20125;-83
2023/10/11 09:16:13;;;;;;;15.85;3.30;;;;;;;;;;5020652;28;20037;-85
2023/10/11 09:18:41;;;;;;;17.23;3.22;;;;;;;;;;5012464;28;20037;-84
2023/10/11 09:21:17;;;;;;;15.55;3.20;;;;;;;;;;5018787;28;20030;-81
2023/10/11 09:23:47;;;;;;;14.77;3.25;;;;;;;;;;5021404;28;20722;-82
2023/10/11 09:26:32;;;;;;;13.65;3.40;;;;;;;;;;5027996;28;20041;-83
2023/10/11 09:29:02;;;;;;;13.43;3.13;;;;;;;;;;5033552;28;20034;-81
2023/10/11 09:31:32;;;;;;;13.18;2.88;;;;;;;;;;5034089;28;20075;-81
2023/10/11 09:34:05;;;;;;;10.98;2.88;;;;;;;;;;5003839;28;20411;-83
2023/10/11 09:36:31;;;;;;;14.70;3.15;;;;;;;;;;5017312;28;20069;-83
2023/10/11 09:39:03;;;;;;;13.18;2.95;;;;;;;;;;5041351;28;20434;-82
2023/10/11 09:41:38;;;;;;;16.88;3.50;;;;;;;;;;5025703;28;20483;-82
2023/10/11 09:44:12;;;;;;;14.95;3.08;;;;;;;;;;5025190;28;20080;-83
2023/10/11 09:46:43;;;;;;;11.98;3.42;;;;;;;;;;5018638;28;20037;-82
2023/10/11 09:49:15;;;;;;;16.88;3.50;;;;;;;;;;5015541;28;20040;-81
2023/10/11 09:51:42;;;;;;;13.23;3.08;;;;;;;;;;5026252;28;20399;-82
2023/10/11 09:54:12;;;;;;;12.98;3.80;;;;;;;;;;5031798;28;20113;-81
2023/10/11 09:56:57;;;;;;;11.05;3.33;;;;;;;;;;5016256;28;20062;-84
2023/10/11 09:59:47;;;;;;;15.85;3.40;;;;;;;;;;5020253;28;20051;-81
2023/10/11 10:02:32;;;;;;;12.48;3.13;;;;;;;;;;5025878;28;20034;-84
2023/10/11 10:04:58;;;;;;;14.70;3.15;;;;;;;;;;5020733;28;20034;-84
2023/10/11 10:07:42;;;;;;;11.57;3.00;;;;;;;;;;5017731;28;20034;-85
2023/10/11 10:10:27;;;;;;;11.32;2.80;;;;;;;;;;5021609;28;20037;-83
2023/10/11 10:13:00;;;;;;;17.05;3.15;;;;;;;;;;5022732;28;20048;-82
2023/10/11 10:15:32;;;;;;;13.73;2.80;;;;;;;;;;5032970;28;20040;-85
2023/10/11 10:18:01;;;;;;;15.80;3.22;;;;;;;;;;5016900;28;20044;-82
2023/10/11 10:20:41;;;;;;;18.90;3.60;;;;;;;;;;5024048;28;20045;-83
2023/10/11 10:23:16;;;;;;;13.32;2.95;;;;;;;;;;5037132;28;20511;-84
2023/10/11 10:25:46;;;;;;;11.02;3.40;;;;;;;;;;5015530;28;20037;-83
2023/10/11 10:28:36;;;;;;;12.13;3.05;;;;;;;;;;5021582;28;20059;-84
2023/10/11 10:31:09;;;;;;;14.10;3.17;;;;;;;;;;5022014;28;20040;-82
2023/10/11 10:33:36;;;;;;;18.10;3.00;;;;;;;;;;5029906;28;20026;-84
2023/10/11 10:36:29;;;;;;;14.85;3.28;;;;;;;;;;5025659;28;20471;-82
2023/10/11 10:38:57;;;;;;;10.10;3.00;;;;;;;;;;5015068;28;20112;-84
2023/10/11 10:41:24;;;;;;;13.57;2.78;;;;;;;;;;5023184;28;20075;-82
2023/10/11 10:44:10;;;;;;;10.70;3.10;;;;;;;;;;5027451;28;20504;-84
2023/10/11 10:46:37;;;;;;;29.45;3.55;;;;;;;;;;5024298;28;20128;-82
2023/10/11 10:49:03;;;;;;;10.80;3.13;;;;;;;;;;5033467;28;20037;-83
2023/10/11 10:51:35;;;;;;;17.50;2.92;;;;;;;;;;5036912;28;20029;-84
2023/10/11 10:54:12;;;;;;;10.80;3.10;;;;;;;;;;5039346;28;20044;-82
2023/10/11 10:56:45;;;;;;;13.80;3.05;;;;;;;;;;5008695;28;20042;-82
2023/10/11 10:59:12;;;;;;;15.48;2.88;;;;;;;;;;5033408;28;20503;-83
2023/10/11 11:01:38;;;;;;;13.52;2.92;;;;;;;;;;5022382;28;20438;-82
2023/10/11 11:04:08;;;;;;;13.93;3.10;;;;;;;;;;5025085;28;20037;-82
2023/10/11 11:06:41;;;;;;;11.38;2.70;;;;;;;;;;5027037;28;20041;-83
2023/10/11 11:09:15;;;;;;;10.88;2.90;;;;;;;;;;5041130;23;20050;-87
2023/10/11 11:11:41;;;;;;;13.10;3.20;;;;;;;;;;5040635;28;20050;-87
2023/10/11 11:14:15;;;;;;;17.42;3.45;;;;;;;;;;5041670;28;20044;-87
2023/10/11 11:16:44;;;;;;;12.18;2.88;;;;;;;;;;5038390;28;20069;-86
2023/10/11 11:19:18;;;;;;;13.98;3.25;;;;;;;;;;5040268;28;20060;-86
2023/10/11 11:21:47;;;;;;;10.52;2.95;;;;;;;;;;5034393;28;20069;-87
2023/10/11 11:24:34;;;;;;;17.55;4.30;;;;;;;;;;5036617;28;20073;-87
2023/10/11 11:27:06;;;;;;;20.73;3.95;;;;;;;;;;5039407;28;20038;-87
2023/10/11 11:29:32;;;;;;;14.90;3.33;;;;;;;;;;5039378;28;20041;-87
2023/10/11 11:32:17;;;;;;;15.15;3.35;;;;;;;;;;5041186;28;20021;-87
2023/10/11 11:35:32;;;;;;;13.95;3.70;;;;;;;;;;5042994;28;20049;-87
2023/10/11 11:38:02;;;;;;;12.15;3.10;;;;;;;;;;5001651;28;20114;-87
2023/10/11 11:40:30;;;;;;;14.02;3.28;;;;;;;;;;5033003;28;20045;-87
2023/10/11 11:43:00;;;;;;;14.70;3.00;;;;;;;;;;5035007;28;20038;-87
2023/10/11 11:45:29;;;;;;;13.48;2.97;;;;;;;;;;5030224;28;20041;-87
2023/10/11 11:47:58;;;;;;;12.65;2.95;;;;;;;;;;5024009;28;20480;-87
2023/10/11 11:50:33;;;;;;;14.82;3.60;;;;;;;;;;5036805;28;20111;-87
2023/10/11 11:53:05;;;;;;;11.30;3.22;;;;;;;;;;5036925;28;20048;-83
2023/10/11 11:55:32;;;;;;;14.43;3.60;;;;;;;;;;5040794;28;20160;-83
2023/10/11 11:57:58;;;;;;;9.88;3.10;;;;;;;;;;5039973;28;20048;-82
2023/10/11 12:02:52;;;;;;;11.45;2.97;;;;;;;;;;5037829;28;20021;-82
2023/10/11 12:05:18;;;;;;;12.90;2.70;;;;;;;;;;5037714;28;20034;-82
2023/10/11 12:07:43;;;;;;;11.65;2.90;;;;;;;;;;5040097;28;20041;-85
2023/10/11 12:10:25;;;;;;;12.43;2.88;;;;;;;;;;5042211;28;20094;-85
2023/10/11 12:12:51;;;;;;;15.50;3.05;;;;;;;;;;5040819;28;20739;-84
2023/10/11 12:15:18;;;;;;;12.02;3.00;;;;;;;;;;5042676;28;20032;-85
2023/10/11 12:17:45;;;;;;;9.35;3.13;;;;;;;;;;5044117;28;20075;-84
2023/10/11 12:20:12;;;;;;;8.82;2.90;;;;;;;;;;5042739;28;20045;-84
2023/10/11 12:22:44;;;;;;;15.18;3.00;;;;;;;;;;5046448;28;20060;-84
2023/10/11 12:25:13;;;;;;;16.60;2.72;;;;;;;;;;5045983;28;20542;-84
2023/10/11 12:27:42;;;;;;;16.58;3.10;;;;;;;;;;5045422;28;20330;-84
2023/10/11 12:30:19;;;;;;;17.58;3.15;;;;;;;;;;5045461;28;20415;-86
2023/10/11 12:32:45;;;;;;;21.05;4.20;;;;;;;;;;5042906;28;20077;-85
2023/10/11 12:35:12;;;;;;;16.30;3.33;;;;;;;;;;5025536;28;20041;-87
2023/10/11 12:37:40;;;;;;;10.18;3.08;;;;;;;;;;5031986;28;20026;-87
2023/10/11 12:40:28;;;;;;;16.13;3.05;;;;;;;;;;5033332;28;20045;-87
2023/10/11 12:42:55;;;;;;;11.90;3.10;;;;;;;;;;5032809;28;20116;-87
2023/10/11 12:45:21;;;;;;;12.70;3.40;;;;;;;;;;5033935;28;20045;-88
2023/10/11 12:47:47;;;;;;;11.75;2.83;;;;;;;;;;5033753;28;20037;-88
2023/10/11 12:50:14;;;;;;;13.50;2.70;;;;;;;;;;5033644;28;20106;-88
2023/10/11 12:52:40;;;;;;;13.45;2.97;;;;;;;;;;5031630;28;20479;-88
2023/10/11 12:55:07;;;;;;;13.55;2.85;;;;;;;;;;5033749;28;20029;-88
2023/10/11 12:57:38;;;;;;;14.57;3.25;;;;;;;;;;5033268;28;20120;-87
2023/10/11 13:02:56;;;;;;;13.25;3.03;;;;;;;;;;5031614;28;20061;-89
2023/10/11 13:05:21;;;;;;;13.95;3.42;;;;;;;;;;5032431;28;20467;-88
2023/10/11 13:07:47;;;;;;;17.63;3.17;;;;;;;;;;5033009;28;20073;-88
2023/10/11 13:10:12;;;;;;;11.18;2.92;;;;;;;;;;5026431;28;20470;-88
2023/10/11 13:12:40;;;;;;;15.20;3.28;;;;;;;;;;5028514;28;20033;-89
2023/10/11 13:15:09;;;;;;;14.60;2.80;;;;;;;;;;5030746;28;20033;-89
2023/10/11 13:17:34;;;;;;;18.77;3.20;;;;;;;;;;5032978;28;20041;-89
2023/10/11 13:20:08;;;;;;;9.23;3.10;;;;;;;;;;5033879;28;20036;-89
2023/10/11 13:22:35;;;;;;;16.98;3.50;;;;;;;;;;5035392;28;20091;-88
2023/10/11 13:25:02;;;;;;;10.88;2.85;;;;;;;;;;5037680;28;20108;-89
2023/10/11 13:27:30;;;;;;;15.90;3.20;;;;;;;;;;5034363;28;20037;-89
2023/10/11 13:30:01;;;;;;;12.85;3.30;;;;;;;;;;5036145;28;20017;-88
2023/10/11 13:32:28;;;;;;;12.38;2.92;;;;;;;;;;5034169;28;20088;-87
2023/10/11 13:34:54;;;;;;;11.07;3.10;;;;;;;;;;5034705;28;20027;-88
2023/10/11 13:37:22;;;;;;;9.82;3.08;;;;;;;;;;5034961;28;20056;-87
2023/10/11 13:39:47;;;;;;;15.90;3.13;;;;;;;;;;5030147;28;20025;-87
2023/10/11 13:42:14;;;;;;;10.18;2.90;;;;;;;;;;5029222;28;20046;-87
2023/10/11 13:44:43;;;;;;;16.10;3.10;;;;;;;;;;5033619;28;20033;-87
2023/10/11 13:47:09;;;;;;;10.50;3.05;;;;;;;;;;5032062;28;20408;-86
2023/10/11 13:49:37;;;;;;;13.10;2.67;;;;;;;;;;5032474;28;20037;-87
2023/10/11 13:52:04;;;;;;;11.20;3.08;;;;;;;;;;5033495;28;20029;-87
2023/10/11 13:54:38;;;;;;;11.57;3.40;;;;;;;;;;5019228;28;20041;-87
2023/10/11 13:57:10;;;;;;;13.55;3.13;;;;;;;;;;5031856;28;20102;-85
2023/10/11 13:59:48;;;;;;;17.75;3.28;;;;;;;;;;5031814;28;20094;-87
2023/10/11 14:07:33;;;;;;;18.08;3.08;;;;;;;;;;5034271;28;20509;-90
2023/10/11 14:09:58;;;;;;;12.82;3.60;;;;;;;;;;5024917;28;20140;-88
2023/10/11 14:12:34;;;;;;;11.10;2.67;;;;;;;;;;5028777;28;20116;-86
2023/10/11 14:15:12;;;;;;;12.07;3.13;;;;;;;;;;5033855;28;20486;-87
2023/10/11 14:17:41;;;;;;;14.65;2.90;;;;;;;;;;5029059;28;20044;-87
2023/10/11 14:20:19;;;;;;;12.00;3.05;;;;;;;;;;5031931;28;20041;-88
2023/10/11 14:22:53;;;;;;;16.02;3.25;;;;;;;;;;5043426;28;20030;-87
2023/10/11 14:25:19;;;;;;;12.57;3.10;;;;;;;;;;5034408;28;20045;-88
2023/10/11 14:27:48;;;;;;;16.67;3.30;;;;;;;;;;5034887;28;20075;-87
2023/10/11 14:30:14;;;;;;;9.77;2.65;;;;;;;;;;5034123;28;20042;-87
2023/10/11 14:32:44;;;;;;;15.95;3.10;;;;;;;;;;5038489;28;20426;-89
2023/10/11 14:35:21;;;;;;;12.02;3.20;;;;;;;;;;5035259;28;20475;-84
2023/10/11 14:37:46;;;;;;;8.45;2.60;;;;;;;;;;5030790;28;20100;-84
2023/10/11 14:40:17;;;;;;;10.32;3.05;;;;;;;;;;5039705;28;20021;-87
2023/10/11 14:42:47;;;;;;;12.30;2.88;;;;;;;;;;5043323;28;20068;-87
2023/10/11 14:45:17;;;;;;;13.15;3.03;;;;;;;;;;5036616;28;20046;-87
2023/10/11 14:47:47;;;;;;;17.35;3.03;;;;;;;;;;5040080;28;20037;-87
2023/10/11 14:50:13;;;;;;;13.15;2.80;;;;;;;;;;5041824;28;20043;-87
2023/10/11 14:52:41;;;;;;;9.80;2.75;;;;;;;;;;5021805;28;20103;-86
2023/10/11 14:55:08;;;;;;;13.50;3.45;;;;;;;;;;5035194;28;20037;-87
2023/10/11 14:57:33;;;;;;;17.98;3.47;;;;;;;;;;5039879;28;20133;-86
2023/10/11 14:59:59;;;;;;;13.27;3.35;;;;;;;;;;5038574;28;20065;-86
2023/10/11 15:02:25;;;;;;;11.73;2.95;;;;;;;;;;5038025;28;20099;-85
2023/10/11 15:04:52;;;;;;;17.23;3.42;;;;;;;;;;5036769;28;20037;-85
2023/10/11 15:07:18;;;;;;;18.48;3.00;;;;;;;;;;5036187;28;20449;-86
2023/10/11 15:09:44;;;;;;;12.77;3.33;;;;;;;;;;5037627;28;20427;-85
2023/10/11 15:12:10;;;;;;;12.60;2.95;;;;;;;;;;5036159;28;20072;-85
2023/10/11 15:14:36;;;;;;;16.95;3.08;;;;;;;;;;5036687;28;20037;-84
2023/10/11 15:17:02;;;;;;;15.18;3.05;;;;;;;;;;5036706;28;20044;-86
2023/10/11 15:19:29;;;;;;;17.27;3.15;;;;;;;;;;5037136;28;20084;-86
2023/10/11 15:21:55;;;;;;;13.13;2.90;;;;;;;;;;5034716;28;20041;-86
2023/10/11 15:24:23;;;;;;;14.50;3.00;;;;;;;;;;5034495;28;20049;-89
2023/10/11 15:26:50;;;;;;;12.45;2.95;;;;;;;;;;5033199;28;20078;-86
2023/10/11 15:29:15;;;;;;;13.05;3.30;;;;;;;;;;5036831;28;20044;-85
2023/10/11 15:31:41;;;;;;;13.90;3.10;;;;;;;;;;5036406;28;20038;-87
2023/10/11 15:34:12;;;;;;;9.70;2.80;;;;;;;;;;5038002;28;20038;-87
2023/10/11 15:36:40;;;;;;;14.68;3.17;;;;;;;;;;5036429;28;20048;-86
2023/10/11 15:39:08;;;;;;;16.02;3.10;;;;;;;;;;5036063;28;20037;-86
2023/10/11 15:41:34;;;;;;;11.25;2.97;;;;;;;;;;5034389;28;20048;-90
2023/10/11 15:44:00;;;;;;;7.65;2.80;;;;;;;;;;5033351;28;20037;-89
2023/10/11 15:46:25;;;;;;;11.57;2.83;;;;;;;;;;5038357;28;20033;-90
2023/10/11 15:48:52;;;;;;;13.57;3.05;;;;;;;;;;5035570;28;20499;-89
2023/10/11 15:51:23;;;;;;;12.60;2.95;;;;;;;;;;5034740;28;20589;-89